sensor_id;sensor_type;location;lat;lon;timestamp;P1;P2;P0
49708;PMS5003;35601;55.902;13.606;2023-04-25T00:00:19;17;15;
49708;PMS5003;35601;55.902;13.606;2023-04-25T00:02:45;13;13;
49708;PMS5003;35601;55.902;13.606;2023-04-25T00:05:10;13;11;
49708;PMS5003;35601;55.902;13.606;2023-04-25T00:07:36;15;13;
49708;PMS5003;35601;55.902;13.606;2023-04-25T00:10:02;13;12;
49708;PMS5003;35601;55.902;13.606;2023-04-25T00:12:26;23;16;
49708;PMS5003;35601;55.902;13.606;2023-04-25T00:14:52;12;10;
49708;PMS5003;35601;55.902;13.606;2023-04-25T00:17:19;14;12;
49708;PMS5003;35601;55.902;13.606;2023-04-25T00:19:44;13;12;
49708;PMS5003;35601;55.902;13.606;2023-04-25T00:22:09;12;9;
49708;PMS5003;35601;55.902;13.606;2023-04-25T00:24:34;14;9;
49708;PMS5003;35601;55.902;13.606;2023-04-25T00:27:00;8;8;
49708;PMS5003;35601;55.902;13.606;2023-04-25T00:29:26;11;10;
49708;PMS5003;35601;55.902;13.606;2023-04-25T00:31:51;11;9;
49708;PMS5003;35601;55.902;13.606;2023-04-25T00:34:16;11;10;
49708;PMS5003;35601;55.902;13.606;2023-04-25T00:36:42;9;9;
49708;PMS5003;35601;55.902;13.606;2023-04-25T00:39:08;10;9;
49708;PMS5003;35601;55.902;13.606;2023-04-25T00:41:33;10;10;
49708;PMS5003;35601;55.902;13.606;2023-04-25T00:44:01;13;10;
49708;PMS5003;35601;55.902;13.606;2023-04-25T00:46:25;12;11;
49708;PMS5003;35601;55.902;13.606;2023-04-25T00:48:50;13;9;
49708;PMS5003;35601;55.902;13.606;2023-04-25T00:51:16;11;7;
49708;PMS5003;35601;55.902;13.606;2023-04-25T00:53:41;9;9;
49708;PMS5003;35601;55.902;13.606;2023-04-25T00:56:08;12;12;
49708;PMS5003;35601;55.902;13.606;2023-04-25T00:58:31;10;9;
49708;PMS5003;35601;55.902;13.606;2023-04-25T01:00:57;10;10;
49708;PMS5003;35601;55.902;13.606;2023-04-25T01:03:23;17;14;
49708;PMS5003;35601;55.902;13.606;2023-04-25T01:05:47;12;11;
49708;PMS5003;35601;55.902;13.606;2023-04-25T01:08:13;15;11;
49708;PMS5003;35601;55.902;13.606;2023-04-25T01:10:38;11;11;
49708;PMS5003;35601;55.902;13.606;2023-04-25T01:13:05;16;13;
49708;PMS5003;35601;55.902;13.606;2023-04-25T01:15:29;12;12;
49708;PMS5003;35601;55.902;13.606;2023-04-25T01:17:54;12;11;
49708;PMS5003;35601;55.902;13.606;2023-04-25T01:20:20;16;14;
49708;PMS5003;35601;55.902;13.606;2023-04-25T01:22:45;15;14;
49708;PMS5003;35601;55.902;13.606;2023-04-25T01:25:12;13;12;
49708;PMS5003;35601;55.902;13.606;2023-04-25T01:27:37;13;12;
49708;PMS5003;35601;55.902;13.606;2023-04-25T01:30:03;15;14;
49708;PMS5003;35601;55.902;13.606;2023-04-25T01:32:28;13;12;
49708;PMS5003;35601;55.902;13.606;2023-04-25T01:34:54;14;14;
49708;PMS5003;35601;55.902;13.606;2023-04-25T01:37:20;16;15;
49708;PMS5003;35601;55.902;13.606;2023-04-25T01:39:45;16;13;
49708;PMS5003;35601;55.902;13.606;2023-04-25T01:42:10;14;11;
49708;PMS5003;35601;55.902;13.606;2023-04-25T01:44:35;17;13;
49708;PMS5003;35601;55.902;13.606;2023-04-25T01:47:01;13;10;
49708;PMS5003;35601;55.902;13.606;2023-04-25T01:49:26;16;15;
49708;PMS5003;35601;55.902;13.606;2023-04-25T01:51:52;16;13;
49708;PMS5003;35601;55.902;13.606;2023-04-25T01:54:18;15;12;
49708;PMS5003;35601;55.902;13.606;2023-04-25T01:56:43;12;12;
49708;PMS5003;35601;55.902;13.606;2023-04-25T01:59:08;14;12;
49708;PMS5003;35601;55.902;13.606;2023-04-25T02:01:34;12;10;
49708;PMS5003;35601;55.902;13.606;2023-04-25T02:04:00;12;12;
49708;PMS5003;35601;55.902;13.606;2023-04-25T02:06:25;12;10;
49708;PMS5003;35601;55.902;13.606;2023-04-25T02:08:50;9;9;
49708;PMS5003;35601;55.902;13.606;2023-04-25T02:11:15;10;10;
49708;PMS5003;35601;55.902;13.606;2023-04-25T02:13:41;11;10;
49708;PMS5003;35601;55.902;13.606;2023-04-25T02:16:07;11;10;
49708;PMS5003;35601;55.902;13.606;2023-04-25T02:18:32;9;9;
49708;PMS5003;35601;55.902;13.606;2023-04-25T02:20:57;12;11;
49708;PMS5003;35601;55.902;13.606;2023-04-25T02:23:22;19;13;
49708;PMS5003;35601;55.902;13.606;2023-04-25T02:25:48;9;9;
49708;PMS5003;35601;55.902;13.606;2023-04-25T02:28:13;13;12;
49708;PMS5003;35601;55.902;13.606;2023-04-25T02:30:38;13;11;
49708;PMS5003;35601;55.902;13.606;2023-04-25T02:33:04;11;10;
49708;PMS5003;35601;55.902;13.606;2023-04-25T02:35:30;11;9;
49708;PMS5003;35601;55.902;13.606;2023-04-25T02:37:55;14;13;
49708;PMS5003;35601;55.902;13.606;2023-04-25T02:40:20;12;12;
49708;PMS5003;35601;55.902;13.606;2023-04-25T02:42:45;16;14;
49708;PMS5003;35601;55.902;13.606;2023-04-25T02:45:10;11;11;
49708;PMS5003;35601;55.902;13.606;2023-04-25T02:47:36;14;12;
49708;PMS5003;35601;55.902;13.606;2023-04-25T02:50:03;11;10;
49708;PMS5003;35601;55.902;13.606;2023-04-25T02:52:27;13;13;
49708;PMS5003;35601;55.902;13.606;2023-04-25T02:54:52;13;11;
49708;PMS5003;35601;55.902;13.606;2023-04-25T02:57:17;14;11;
49708;PMS5003;35601;55.902;13.606;2023-04-25T02:59:43;12;12;
49708;PMS5003;35601;55.902;13.606;2023-04-25T03:02:09;18;14;
49708;PMS5003;35601;55.902;13.606;2023-04-25T03:04:35;15;10;
49708;PMS5003;35601;55.902;13.606;2023-04-25T03:07:00;11;10;
49708;PMS5003;35601;55.902;13.606;2023-04-25T03:09:25;8;8;
49708;PMS5003;35601;55.902;13.606;2023-04-25T03:11:51;10;10;
49708;PMS5003;35601;55.902;13.606;2023-04-25T03:14:16;10;9;
49708;PMS5003;35601;55.902;13.606;2023-04-25T03:16:42;5;5;
49708;PMS5003;35601;55.902;13.606;2023-04-25T03:19:07;6;6;
49708;PMS5003;35601;55.902;13.606;2023-04-25T03:21:33;6;6;
49708;PMS5003;35601;55.902;13.606;2023-04-25T03:23:58;8;6;
49708;PMS5003;35601;55.902;13.606;2023-04-25T03:26:23;10;7;
49708;PMS5003;35601;55.902;13.606;2023-04-25T03:28:49;6;6;
49708;PMS5003;35601;55.902;13.606;2023-04-25T03:31:14;4;4;
49708;PMS5003;35601;55.902;13.606;2023-04-25T03:33:39;4;4;
49708;PMS5003;35601;55.902;13.606;2023-04-25T03:36:05;4;4;
49708;PMS5003;35601;55.902;13.606;2023-04-25T03:38:30;4;4;
49708;PMS5003;35601;55.902;13.606;2023-04-25T03:40:55;4;4;
49708;PMS5003;35601;55.902;13.606;2023-04-25T03:43:20;3;3;
49708;PMS5003;35601;55.902;13.606;2023-04-25T03:45:46;4;4;
49708;PMS5003;35601;55.902;13.606;2023-04-25T03:48:11;5;5;
49708;PMS5003;35601;55.902;13.606;2023-04-25T03:50:37;6;6;
49708;PMS5003;35601;55.902;13.606;2023-04-25T03:53:02;6;6;
49708;PMS5003;35601;55.902;13.606;2023-04-25T03:55:27;6;6;
49708;PMS5003;35601;55.902;13.606;2023-04-25T03:57:53;6;6;
49708;PMS5003;35601;55.902;13.606;2023-04-25T04:00:18;8;6;
49708;PMS5003;35601;55.902;13.606;2023-04-25T04:02:43;6;6;
49708;PMS5003;35601;55.902;13.606;2023-04-25T04:05:09;7;7;
49708;PMS5003;35601;55.902;13.606;2023-04-25T04:07:34;5;4;
49708;PMS5003;35601;55.902;13.606;2023-04-25T04:10:00;6;6;
49708;PMS5003;35601;55.902;13.606;2023-04-25T04:12:25;7;5;
49708;PMS5003;35601;55.902;13.606;2023-04-25T04:14:50;6;6;
49708;PMS5003;35601;55.902;13.606;2023-04-25T04:17:16;6;5;
49708;PMS5003;35601;55.902;13.606;2023-04-25T04:19:41;10;10;
49708;PMS5003;35601;55.902;13.606;2023-04-25T04:22:07;7;7;
49708;PMS5003;35601;55.902;13.606;2023-04-25T04:24:32;8;7;
49708;PMS5003;35601;55.902;13.606;2023-04-25T04:26:57;9;9;
49708;PMS5003;35601;55.902;13.606;2023-04-25T04:29:23;10;9;
49708;PMS5003;35601;55.902;13.606;2023-04-25T04:31:48;9;8;
49708;PMS5003;35601;55.902;13.606;2023-04-25T04:34:13;9;9;
49708;PMS5003;35601;55.902;13.606;2023-04-25T04:36:38;12;10;
49708;PMS5003;35601;55.902;13.606;2023-04-25T04:39:05;9;9;
49708;PMS5003;35601;55.902;13.606;2023-04-25T04:41:29;10;10;
49708;PMS5003;35601;55.902;13.606;2023-04-25T04:43:54;11;8;
49708;PMS5003;35601;55.902;13.606;2023-04-25T04:46:20;13;12;
49708;PMS5003;35601;55.902;13.606;2023-04-25T04:48:46;8;8;
49708;PMS5003;35601;55.902;13.606;2023-04-25T04:51:11;9;9;
49708;PMS5003;35601;55.902;13.606;2023-04-25T04:53:36;12;11;
49708;PMS5003;35601;55.902;13.606;2023-04-25T04:56:02;14;8;
49708;PMS5003;35601;55.902;13.606;2023-04-25T04:58:27;10;8;
49708;PMS5003;35601;55.902;13.606;2023-04-25T05:00:52;16;9;
49708;PMS5003;35601;55.902;13.606;2023-04-25T05:03:17;9;9;
49708;PMS5003;35601;55.902;13.606;2023-04-25T05:05:43;11;9;
49708;PMS5003;35601;55.902;13.606;2023-04-25T05:08:09;12;10;
49708;PMS5003;35601;55.902;13.606;2023-04-25T05:10:35;11;9;
49708;PMS5003;35601;55.902;13.606;2023-04-25T05:12:59;13;12;
49708;PMS5003;35601;55.902;13.606;2023-04-25T05:15:24;8;8;
49708;PMS5003;35601;55.902;13.606;2023-04-25T05:17:50;9;9;
49708;PMS5003;35601;55.902;13.606;2023-04-25T05:20:17;12;12;
49708;PMS5003;35601;55.902;13.606;2023-04-25T05:22:42;9;9;
49708;PMS5003;35601;55.902;13.606;2023-04-25T05:25:07;11;9;
49708;PMS5003;35601;55.902;13.606;2023-04-25T05:27:31;10;9;
49708;PMS5003;35601;55.902;13.606;2023-04-25T05:29:56;10;8;
49708;PMS5003;35601;55.902;13.606;2023-04-25T05:32:23;9;9;
49708;PMS5003;35601;55.902;13.606;2023-04-25T05:34:48;11;10;
49708;PMS5003;35601;55.902;13.606;2023-04-25T05:37:14;14;10;
49708;PMS5003;35601;55.902;13.606;2023-04-25T05:39:39;11;7;
49708;PMS5003;35601;55.902;13.606;2023-04-25T05:42:05;10;10;
49708;PMS5003;35601;55.902;13.606;2023-04-25T05:44:30;9;9;
49708;PMS5003;35601;55.902;13.606;2023-04-25T05:46:57;11;10;
49708;PMS5003;35601;55.902;13.606;2023-04-25T05:49:22;12;12;
49708;PMS5003;35601;55.902;13.606;2023-04-25T05:51:47;14;9;
49708;PMS5003;35601;55.902;13.606;2023-04-25T05:54:12;11;9;
49708;PMS5003;35601;55.902;13.606;2023-04-25T05:56:37;13;11;
49708;PMS5003;35601;55.902;13.606;2023-04-25T05:59:05;13;11;
49708;PMS5003;35601;55.902;13.606;2023-04-25T06:01:29;11;10;
49708;PMS5003;35601;55.902;13.606;2023-04-25T06:03:54;12;11;
49708;PMS5003;35601;55.902;13.606;2023-04-25T06:06:21;11;9;
49708;PMS5003;35601;55.902;13.606;2023-04-25T06:08:48;14;11;
49708;PMS5003;35601;55.902;13.606;2023-04-25T06:11:11;13;10;
49708;PMS5003;35601;55.902;13.606;2023-04-25T06:13:37;13;11;
49708;PMS5003;35601;55.902;13.606;2023-04-25T06:16:03;12;10;
49708;PMS5003;35601;55.902;13.606;2023-04-25T06:18:29;12;10;
49708;PMS5003;35601;55.902;13.606;2023-04-25T06:20:54;14;11;
49708;PMS5003;35601;55.902;13.606;2023-04-25T06:23:21;12;11;
49708;PMS5003;35601;55.902;13.606;2023-04-25T06:25:46;12;11;
49708;PMS5003;35601;55.902;13.606;2023-04-25T06:28:10;10;10;
49708;PMS5003;35601;55.902;13.606;2023-04-25T06:30:35;11;9;
49708;PMS5003;35601;55.902;13.606;2023-04-25T06:33:01;12;12;
49708;PMS5003;35601;55.902;13.606;2023-04-25T06:35:26;10;10;
49708;PMS5003;35601;55.902;13.606;2023-04-25T06:37:51;13;10;
49708;PMS5003;35601;55.902;13.606;2023-04-25T06:40:18;15;12;
49708;PMS5003;35601;55.902;13.606;2023-04-25T06:42:42;13;10;
49708;PMS5003;35601;55.902;13.606;2023-04-25T06:45:09;14;13;
49708;PMS5003;35601;55.902;13.606;2023-04-25T06:47:32;14;13;
49708;PMS5003;35601;55.902;13.606;2023-04-25T06:49:58;13;12;
49708;PMS5003;35601;55.902;13.606;2023-04-25T06:52:23;10;9;
49708;PMS5003;35601;55.902;13.606;2023-04-25T06:54:48;13;9;
49708;PMS5003;35601;55.902;13.606;2023-04-25T06:57:13;11;11;
49708;PMS5003;35601;55.902;13.606;2023-04-25T06:59:38;14;11;
49708;PMS5003;35601;55.902;13.606;2023-04-25T07:02:05;9;9;
49708;PMS5003;35601;55.902;13.606;2023-04-25T07:04:29;16;12;
49708;PMS5003;35601;55.902;13.606;2023-04-25T07:06:54;13;11;
49708;PMS5003;35601;55.902;13.606;2023-04-25T07:09:19;15;13;
49708;PMS5003;35601;55.902;13.606;2023-04-25T07:11:45;12;11;
49708;PMS5003;35601;55.902;13.606;2023-04-25T07:14:10;14;12;
49708;PMS5003;35601;55.902;13.606;2023-04-25T07:16:35;11;10;
49708;PMS5003;35601;55.902;13.606;2023-04-25T07:19:01;12;11;
49708;PMS5003;35601;55.902;13.606;2023-04-25T07:21:27;12;10;
49708;PMS5003;35601;55.902;13.606;2023-04-25T07:23:52;16;13;
49708;PMS5003;35601;55.902;13.606;2023-04-25T07:26:17;14;12;
49708;PMS5003;35601;55.902;13.606;2023-04-25T07:28:42;13;11;
49708;PMS5003;35601;55.902;13.606;2023-04-25T07:31:07;17;13;
49708;PMS5003;35601;55.902;13.606;2023-04-25T07:33:33;12;10;
49708;PMS5003;35601;55.902;13.606;2023-04-25T07:36:00;15;14;
49708;PMS5003;35601;55.902;13.606;2023-04-25T07:38:24;12;12;
49708;PMS5003;35601;55.902;13.606;2023-04-25T07:40:50;19;15;
49708;PMS5003;35601;55.902;13.606;2023-04-25T07:43:15;17;16;
49708;PMS5003;35601;55.902;13.606;2023-04-25T07:45:40;12;11;
49708;PMS5003;35601;55.902;13.606;2023-04-25T07:48:06;15;12;
49708;PMS5003;35601;55.902;13.606;2023-04-25T07:50:31;23;16;
49708;PMS5003;35601;55.902;13.606;2023-04-25T07:52:56;14;14;
49708;PMS5003;35601;55.902;13.606;2023-04-25T07:55:21;12;11;
49708;PMS5003;35601;55.902;13.606;2023-04-25T07:57:47;13;11;
49708;PMS5003;35601;55.902;13.606;2023-04-25T08:00:13;19;17;
49708;PMS5003;35601;55.902;13.606;2023-04-25T08:02:38;16;13;
49708;PMS5003;35601;55.902;13.606;2023-04-25T08:05:04;18;14;
49708;PMS5003;35601;55.902;13.606;2023-04-25T08:07:29;12;12;
49708;PMS5003;35601;55.902;13.606;2023-04-25T08:09:55;15;13;
49708;PMS5003;35601;55.902;13.606;2023-04-25T08:12:21;13;13;
49708;PMS5003;35601;55.902;13.606;2023-04-25T08:14:46;14;12;
49708;PMS5003;35601;55.902;13.606;2023-04-25T08:17:11;16;14;
49708;PMS5003;35601;55.902;13.606;2023-04-25T08:19:36;16;12;
49708;PMS5003;35601;55.902;13.606;2023-04-25T08:22:02;12;11;
49708;PMS5003;35601;55.902;13.606;2023-04-25T08:24:27;12;10;
49708;PMS5003;35601;55.902;13.606;2023-04-25T08:26:52;13;12;
49708;PMS5003;35601;55.902;13.606;2023-04-25T08:29:18;13;11;
49708;PMS5003;35601;55.902;13.606;2023-04-25T08:31:43;16;14;
49708;PMS5003;35601;55.902;13.606;2023-04-25T08:34:08;15;15;
49708;PMS5003;35601;55.902;13.606;2023-04-25T08:36:33;17;15;
49708;PMS5003;35601;55.902;13.606;2023-04-25T08:38:59;14;13;
49708;PMS5003;35601;55.902;13.606;2023-04-25T08:41:25;13;11;
49708;PMS5003;35601;55.902;13.606;2023-04-25T08:43:50;16;11;
49708;PMS5003;35601;55.902;13.606;2023-04-25T08:46:17;13;11;
49708;PMS5003;35601;55.902;13.606;2023-04-25T08:48:41;12;11;
49708;PMS5003;35601;55.902;13.606;2023-04-25T08:51:07;16;14;
49708;PMS5003;35601;55.902;13.606;2023-04-25T08:53:33;14;11;
49708;PMS5003;35601;55.902;13.606;2023-04-25T08:55:58;18;16;
49708;PMS5003;35601;55.902;13.606;2023-04-25T08:58:23;21;14;
49708;PMS5003;35601;55.902;13.606;2023-04-25T09:00:49;13;10;
49708;PMS5003;35601;55.902;13.606;2023-04-25T09:03:15;13;11;
49708;PMS5003;35601;55.902;13.606;2023-04-25T09:05:40;11;11;
49708;PMS5003;35601;55.902;13.606;2023-04-25T09:08:06;11;10;
49708;PMS5003;35601;55.902;13.606;2023-04-25T09:10:31;13;11;
49708;PMS5003;35601;55.902;13.606;2023-04-25T09:13:02;15;13;
49708;PMS5003;35601;55.902;13.606;2023-04-25T09:15:23;16;14;
49708;PMS5003;35601;55.902;13.606;2023-04-25T09:17:52;14;12;
49708;PMS5003;35601;55.902;13.606;2023-04-25T09:20:15;13;13;
49708;PMS5003;35601;55.902;13.606;2023-04-25T09:22:39;20;14;
49708;PMS5003;35601;55.902;13.606;2023-04-25T09:25:09;18;16;
49708;PMS5003;35601;55.902;13.606;2023-04-25T09:27:31;14;13;
49708;PMS5003;35601;55.902;13.606;2023-04-25T09:29:58;12;12;
49708;PMS5003;35601;55.902;13.606;2023-04-25T09:32:23;18;15;
49708;PMS5003;35601;55.902;13.606;2023-04-25T09:34:48;17;17;
49708;PMS5003;35601;55.902;13.606;2023-04-25T09:37:17;17;15;
49708;PMS5003;35601;55.902;13.606;2023-04-25T09:39:40;14;12;
49708;PMS5003;35601;55.902;13.606;2023-04-25T09:42:04;14;12;
49708;PMS5003;35601;55.902;13.606;2023-04-25T09:44:31;12;12;
49708;PMS5003;35601;55.902;13.606;2023-04-25T09:46:56;14;13;
49708;PMS5003;35601;55.902;13.606;2023-04-25T09:49:20;11;9;
49708;PMS5003;35601;55.902;13.606;2023-04-25T09:54:12;15;13;
49708;PMS5003;35601;55.902;13.606;2023-04-25T09:56:37;8;8;
49708;PMS5003;35601;55.902;13.606;2023-04-25T09:59:01;13;11;
49708;PMS5003;35601;55.902;13.606;2023-04-25T10:01:28;7;5;
49708;PMS5003;35601;55.902;13.606;2023-04-25T10:03:52;7;6;
49708;PMS5003;35601;55.902;13.606;2023-04-25T10:06:18;4;4;
49708;PMS5003;35601;55.902;13.606;2023-04-25T10:08:43;6;5;
49708;PMS5003;35601;55.902;13.606;2023-04-25T10:11:09;4;4;
49708;PMS5003;35601;55.902;13.606;2023-04-25T10:13:34;9;7;
49708;PMS5003;35601;55.902;13.606;2023-04-25T10:15:59;7;6;
49708;PMS5003;35601;55.902;13.606;2023-04-25T10:18:26;4;4;
49708;PMS5003;35601;55.902;13.606;2023-04-25T10:20:51;7;3;
49708;PMS5003;35601;55.902;13.606;2023-04-25T10:23:16;9;5;
49708;PMS5003;35601;55.902;13.606;2023-04-25T10:25:41;6;6;
49708;PMS5003;35601;55.902;13.606;2023-04-25T10:28:06;7;6;
49708;PMS5003;35601;55.902;13.606;2023-04-25T10:30:31;7;5;
49708;PMS5003;35601;55.902;13.606;2023-04-25T10:32:58;8;6;
49708;PMS5003;35601;55.902;13.606;2023-04-25T10:35:24;5;5;
49708;PMS5003;35601;55.902;13.606;2023-04-25T10:40:13;3;3;
49708;PMS5003;35601;55.902;13.606;2023-04-25T10:42:38;4;3;
49708;PMS5003;35601;55.902;13.606;2023-04-25T10:45:04;6;4;
49708;PMS5003;35601;55.902;13.606;2023-04-25T10:49:54;5;3;
49708;PMS5003;35601;55.902;13.606;2023-04-25T10:52:24;5;3;
49708;PMS5003;35601;55.902;13.606;2023-04-25T10:54:46;4;4;
49708;PMS5003;35601;55.902;13.606;2023-04-25T10:59:35;2;2;
49708;PMS5003;35601;55.902;13.606;2023-04-25T11:02:00;7;6;
49708;PMS5003;35601;55.902;13.606;2023-04-25T11:04:28;3;3;
49708;PMS5003;35601;55.902;13.606;2023-04-25T11:06:58;5;5;
49708;PMS5003;35601;55.902;13.606;2023-04-25T11:09:16;4;3;
49708;PMS5003;35601;55.902;13.606;2023-04-25T11:11:42;5;5;
49708;PMS5003;35601;55.902;13.606;2023-04-25T11:14:07;4;4;
49708;PMS5003;35601;55.902;13.606;2023-04-25T11:16:32;4;4;
49708;PMS5003;35601;55.902;13.606;2023-04-25T11:18:58;7;6;
49708;PMS5003;35601;55.902;13.606;2023-04-25T11:21:23;4;3;
49708;PMS5003;35601;55.902;13.606;2023-04-25T11:23:48;6;5;
49708;PMS5003;35601;55.902;13.606;2023-04-25T11:26:14;4;4;
49708;PMS5003;35601;55.902;13.606;2023-04-25T11:28:39;7;5;
49708;PMS5003;35601;55.902;13.606;2023-04-25T11:31:04;7;7;
49708;PMS5003;35601;55.902;13.606;2023-04-25T11:33:29;5;5;
49708;PMS5003;35601;55.902;13.606;2023-04-25T11:35:55;6;6;
49708;PMS5003;35601;55.902;13.606;2023-04-25T11:38:20;8;4;
49708;PMS5003;35601;55.902;13.606;2023-04-25T11:40:49;10;10;
49708;PMS5003;35601;55.902;13.606;2023-04-25T11:43:11;8;7;
49708;PMS5003;35601;55.902;13.606;2023-04-25T11:45:37;10;6;
49708;PMS5003;35601;55.902;13.606;2023-04-25T11:48:02;10;10;
49708;PMS5003;35601;55.902;13.606;2023-04-25T11:50:28;15;9;
49708;PMS5003;35601;55.902;13.606;2023-04-25T11:52:55;11;9;
49708;PMS5003;35601;55.902;13.606;2023-04-25T11:55:18;8;6;
49708;PMS5003;35601;55.902;13.606;2023-04-25T11:57:44;9;7;
49708;PMS5003;35601;55.902;13.606;2023-04-25T12:00:10;11;7;
49708;PMS5003;35601;55.902;13.606;2023-04-25T12:02:34;10;7;
49708;PMS5003;35601;55.902;13.606;2023-04-25T12:04:59;11;7;
49708;PMS5003;35601;55.902;13.606;2023-04-25T12:07:28;10;9;
49708;PMS5003;35601;55.902;13.606;2023-04-25T12:09:51;16;9;
49708;PMS5003;35601;55.902;13.606;2023-04-25T12:12:15;9;8;
49708;PMS5003;35601;55.902;13.606;2023-04-25T12:14:40;5;5;
49708;PMS5003;35601;55.902;13.606;2023-04-25T12:17:06;13;9;
49708;PMS5003;35601;55.902;13.606;2023-04-25T12:19:31;12;8;
49708;PMS5003;35601;55.902;13.606;2023-04-25T12:21:56;15;9;
49708;PMS5003;35601;55.902;13.606;2023-04-25T12:24:22;13;9;
49708;PMS5003;35601;55.902;13.606;2023-04-25T12:26:48;14;11;
49708;PMS5003;35601;55.902;13.606;2023-04-25T12:29:15;12;12;
49708;PMS5003;35601;55.902;13.606;2023-04-25T12:31:40;8;7;
49708;PMS5003;35601;55.902;13.606;2023-04-25T12:34:04;11;10;
49708;PMS5003;35601;55.902;13.606;2023-04-25T12:36:31;14;11;
49708;PMS5003;35601;55.902;13.606;2023-04-25T12:38:55;8;8;
49708;PMS5003;35601;55.902;13.606;2023-04-25T12:41:20;17;12;
49708;PMS5003;35601;55.902;13.606;2023-04-25T12:43:45;12;9;
49708;PMS5003;35601;55.902;13.606;2023-04-25T12:46:11;11;11;
49708;PMS5003;35601;55.902;13.606;2023-04-25T12:48:36;10;8;
49708;PMS5003;35601;55.902;13.606;2023-04-25T12:51:02;21;10;
49708;PMS5003;35601;55.902;13.606;2023-04-25T12:53:27;15;8;
49708;PMS5003;35601;55.902;13.606;2023-04-25T12:55:52;16;12;
49708;PMS5003;35601;55.902;13.606;2023-04-25T12:58:18;11;9;
49708;PMS5003;35601;55.902;13.606;2023-04-25T13:00:43;14;11;
49708;PMS5003;35601;55.902;13.606;2023-04-25T13:03:08;10;10;
49708;PMS5003;35601;55.902;13.606;2023-04-25T13:05:33;15;9;
49708;PMS5003;35601;55.902;13.606;2023-04-25T13:07:58;17;13;
49708;PMS5003;35601;55.902;13.606;2023-04-25T13:10:24;12;11;
49708;PMS5003;35601;55.902;13.606;2023-04-25T13:12:49;11;11;
49708;PMS5003;35601;55.902;13.606;2023-04-25T13:15:15;14;11;
49708;PMS5003;35601;55.902;13.606;2023-04-25T13:17:41;10;9;
49708;PMS5003;35601;55.902;13.606;2023-04-25T13:20:07;14;9;
49708;PMS5003;35601;55.902;13.606;2023-04-25T13:22:31;15;10;
49708;PMS5003;35601;55.902;13.606;2023-04-25T13:24:57;11;11;
49708;PMS5003;35601;55.902;13.606;2023-04-25T13:27:23;15;11;
49708;PMS5003;35601;55.902;13.606;2023-04-25T13:29:48;13;11;
49708;PMS5003;35601;55.902;13.606;2023-04-25T13:32:14;11;9;
49708;PMS5003;35601;55.902;13.606;2023-04-25T13:34:39;9;7;
49708;PMS5003;35601;55.902;13.606;2023-04-25T13:37:05;10;10;
49708;PMS5003;35601;55.902;13.606;2023-04-25T13:39:30;11;9;
49708;PMS5003;35601;55.902;13.606;2023-04-25T13:41:55;15;9;
49708;PMS5003;35601;55.902;13.606;2023-04-25T13:44:21;13;10;
49708;PMS5003;35601;55.902;13.606;2023-04-25T13:46:46;8;8;
49708;PMS5003;35601;55.902;13.606;2023-04-25T13:49:13;8;6;
49708;PMS5003;35601;55.902;13.606;2023-04-25T13:51:36;6;6;
49708;PMS5003;35601;55.902;13.606;2023-04-25T13:54:02;13;13;
49708;PMS5003;35601;55.902;13.606;2023-04-25T13:56:27;6;5;
49708;PMS5003;35601;55.902;13.606;2023-04-25T13:58:52;9;8;
49708;PMS5003;35601;55.902;13.606;2023-04-25T14:01:19;12;9;
49708;PMS5003;35601;55.902;13.606;2023-04-25T14:03:44;6;6;
49708;PMS5003;35601;55.902;13.606;2023-04-25T14:06:09;11;9;
49708;PMS5003;35601;55.902;13.606;2023-04-25T14:08:34;12;8;
49708;PMS5003;35601;55.902;13.606;2023-04-25T14:11:00;11;6;
49708;PMS5003;35601;55.902;13.606;2023-04-25T14:13:25;6;6;
49708;PMS5003;35601;55.902;13.606;2023-04-25T14:15:50;10;7;
49708;PMS5003;35601;55.902;13.606;2023-04-25T14:18:16;7;7;
49708;PMS5003;35601;55.902;13.606;2023-04-25T14:20:41;5;4;
49708;PMS5003;35601;55.902;13.606;2023-04-25T14:23:07;6;6;
49708;PMS5003;35601;55.902;13.606;2023-04-25T14:25:32;9;7;
49708;PMS5003;35601;55.902;13.606;2023-04-25T14:27:58;7;6;
49708;PMS5003;35601;55.902;13.606;2023-04-25T14:30:23;8;6;
49708;PMS5003;35601;55.902;13.606;2023-04-25T14:32:48;7;7;
49708;PMS5003;35601;55.902;13.606;2023-04-25T14:35:13;12;8;
49708;PMS5003;35601;55.902;13.606;2023-04-25T14:37:39;7;5;
49708;PMS5003;35601;55.902;13.606;2023-04-25T14:40:05;10;9;
49708;PMS5003;35601;55.902;13.606;2023-04-25T14:42:30;8;5;
49708;PMS5003;35601;55.902;13.606;2023-04-25T14:44:56;5;5;
49708;PMS5003;35601;55.902;13.606;2023-04-25T14:47:21;7;6;
49708;PMS5003;35601;55.902;13.606;2023-04-25T14:49:47;5;5;
49708;PMS5003;35601;55.902;13.606;2023-04-25T14:52:13;6;5;
49708;PMS5003;35601;55.902;13.606;2023-04-25T14:54:38;7;7;
49708;PMS5003;35601;55.902;13.606;2023-04-25T14:57:04;8;7;
49708;PMS5003;35601;55.902;13.606;2023-04-25T14:59:31;8;5;
49708;PMS5003;35601;55.902;13.606;2023-04-25T15:01:54;7;6;
49708;PMS5003;35601;55.902;13.606;2023-04-25T15:04:20;13;10;
49708;PMS5003;35601;55.902;13.606;2023-04-25T15:06:45;9;8;
49708;PMS5003;35601;55.902;13.606;2023-04-25T15:09:11;8;6;
49708;PMS5003;35601;55.902;13.606;2023-04-25T15:11:37;5;5;
49708;PMS5003;35601;55.902;13.606;2023-04-25T15:14:02;8;6;
49708;PMS5003;35601;55.902;13.606;2023-04-25T15:16:27;11;7;
49708;PMS5003;35601;55.902;13.606;2023-04-25T15:18:54;5;4;
49708;PMS5003;35601;55.902;13.606;2023-04-25T15:21:17;7;7;
49708;PMS5003;35601;55.902;13.606;2023-04-25T15:23:43;9;7;
49708;PMS5003;35601;55.902;13.606;2023-04-25T15:26:09;4;4;
49708;PMS5003;35601;55.902;13.606;2023-04-25T15:28:36;6;4;
49708;PMS5003;35601;55.902;13.606;2023-04-25T15:31:01;11;7;
49708;PMS5003;35601;55.902;13.606;2023-04-25T15:33:26;3;3;
49708;PMS5003;35601;55.902;13.606;2023-04-25T15:35:51;5;5;
49708;PMS5003;35601;55.902;13.606;2023-04-25T15:38:16;6;5;
49708;PMS5003;35601;55.902;13.606;2023-04-25T15:40:41;6;4;
49708;PMS5003;35601;55.902;13.606;2023-04-25T15:43:07;5;5;
49708;PMS5003;35601;55.902;13.606;2023-04-25T15:45:32;6;4;
49708;PMS5003;35601;55.902;13.606;2023-04-25T15:47:57;5;5;
49708;PMS5003;35601;55.902;13.606;2023-04-25T15:50:24;7;5;
49708;PMS5003;35601;55.902;13.606;2023-04-25T15:52:48;7;5;
49708;PMS5003;35601;55.902;13.606;2023-04-25T15:55:13;5;5;
49708;PMS5003;35601;55.902;13.606;2023-04-25T15:57:39;7;6;
49708;PMS5003;35601;55.902;13.606;2023-04-25T16:00:04;7;5;
49708;PMS5003;35601;55.902;13.606;2023-04-25T16:02:29;6;6;
49708;PMS5003;35601;55.902;13.606;2023-04-25T16:04:54;6;4;
49708;PMS5003;35601;55.902;13.606;2023-04-25T16:07:19;7;5;
49708;PMS5003;35601;55.902;13.606;2023-04-25T16:09:44;7;7;
49708;PMS5003;35601;55.902;13.606;2023-04-25T16:12:10;6;5;